Time;durP1;ratioP1;P1;durP2;ratioP2;P2;SDS_P1;SDS_P2;PMS_P1;PMS_P2;Temp;Humidity;BMP_temperature;BMP_pressure;BME280_temperature;BME280_humidity;BME280_pressure;Samples;Min_cycle;Max_cycle;Signal;HPM_P1;HPM_P2
2022/05/23 16:00:15;;;;;;;5.30;0.95;;;22.00;99.90;;;;;;5090426;27;20438;-71
2022/05/23 16:02:42;;;;;;;0.20;0.20;;;21.80;99.90;;;;;;5074350;28;20032;-71
2022/05/23 16:05:08;;;;;;;0.25;0.22;;;21.90;99.90;;;;;;5074704;28;20391;-71
2022/05/23 16:07:34;;;;;;;0.40;0.38;;;21.80;99.90;;;;;;5077040;28;20094;-71
2022/05/23 16:10:00;;;;;;;0.25;0.22;;;21.70;99.90;;;;;;5078112;28;20024;-71
2022/05/23 16:12:27;;;;;;;4.22;2.13;;;21.70;99.90;;;;;;5073618;28;20368;-71
2022/05/23 16:14:53;;;;;;;7.40;2.17;;;21.70;99.90;;;;;;5077492;28;20678;-71
2022/05/23 16:17:19;;;;;;;4.88;1.70;;;21.70;99.90;;;;;;5076942;28;20074;-71
2022/05/23 16:19:45;;;;;;;3.65;2.35;;;21.60;99.90;;;;;;5074579;28;22098;-71
2022/05/23 16:22:19;;;;;;;2.83;1.83;;;21.60;99.90;;;;;;5074994;28;20044;-71
2022/05/23 16:24:45;;;;;;;2.47;1.77;;;21.40;99.90;;;;;;5080913;28;20071;-71
2022/05/23 16:27:12;;;;;;;5.32;1.80;;;21.40;99.90;;;;;;5075717;28;20044;-71
2022/05/23 16:29:37;;;;;;;3.50;2.00;;;21.40;99.90;;;;;;5075013;28;20093;-71
2022/05/23 16:32:03;;;;;;;3.30;2.30;;;21.40;99.90;;;;;;5078059;28;20048;-71
2022/05/23 16:37:13;;;;;;;3.22;2.05;;;21.30;99.90;;;;;;5075469;28;20479;-71
2022/05/23 16:39:39;;;;;;;13.40;6.68;;;21.20;99.90;;;;;;5073398;28;20040;-71
2022/05/23 16:42:05;;;;;;;9.88;6.10;;;21.10;99.90;;;;;;5056406;28;20115;-71
2022/05/23 16:44:31;;;;;;;17.58;5.65;;;20.90;99.90;;;;;;5075168;28;20043;-71
2022/05/23 16:46:56;;;;;;;9.13;6.13;;;20.70;99.90;;;;;;5075799;28;20036;-71
2022/05/23 16:49:22;;;;;;;8.50;5.85;;;20.60;99.90;;;;;;5073618;28;20046;-71
2022/05/23 16:51:49;;;;;;;7.20;6.03;;;20.50;99.90;;;;;;5074795;28;20048;-71
2022/05/23 16:54:15;;;;;;;10.52;7.82;;;20.40;99.90;;;;;;5077454;28;20044;-71
2022/05/23 16:56:42;;;;;;;9.57;8.50;;;20.30;99.90;;;;;;5079024;28;20055;-71
2022/05/23 16:59:09;;;;;;;12.25;10.77;;;20.10;99.90;;;;;;5076934;28;20029;-71
2022/05/23 17:01:37;;;;;;;12.50;11.43;;;20.00;99.90;;;;;;5105962;28;20041;-71
2022/05/23 17:04:03;;;;;;;16.67;13.15;;;19.80;99.90;;;;;;5075273;28;20036;-71
2022/05/23 17:06:29;;;;;;;16.58;15.00;;;19.70;99.90;;;;;;5062782;28;20037;-71
2022/05/23 17:08:55;;;;;;;17.45;15.82;;;19.50;99.90;;;;;;5076556;28;20044;-71
2022/05/23 17:11:22;;;;;;;18.67;17.05;;;19.40;99.90;;;;;;5063944;28;20521;-71
2022/05/23 17:13:49;;;;;;;17.58;16.23;;;19.30;99.90;;;;;;5063339;28;20119;-71
2022/05/23 17:16:15;;;;;;;20.13;18.00;;;19.10;99.90;;;;;;5062213;28;20040;-70
2022/05/23 17:18:41;;;;;;;20.35;18.65;;;19.10;99.90;;;;;;5062653;28;20395;-70
2022/05/23 17:21:06;;;;;;;22.77;20.77;;;19.00;99.90;;;;;;5064420;28;20028;-70
2022/05/23 17:23:35;;;;;;;22.85;20.67;;;19.00;99.90;;;;;;5061170;28;20045;-70
2022/05/23 17:26:06;;;;;;;23.50;21.40;;;19.00;99.90;;;;;;5065626;28;20083;-70
2022/05/23 17:28:32;;;;;;;24.35;22.25;;;19.00;99.90;;;;;;5061787;28;20044;-70
2022/05/23 17:30:59;;;;;;;23.13;20.95;;;19.00;99.90;;;;;;5058192;28;20056;-70
2022/05/23 17:33:26;;;;;;;22.08;19.83;;;18.80;99.90;;;;;;5060559;28;20087;-70
2022/05/23 17:35:52;;;;;;;22.65;20.58;;;18.80;99.90;;;;;;5058010;28;20073;-70
2022/05/23 17:38:18;;;;;;;22.83;20.55;;;18.70;99.90;;;;;;5063684;28;20064;-70
2022/05/23 17:40:44;;;;;;;26.30;23.50;;;18.70;99.90;;;;;;5058677;28;20110;-70
2022/05/23 17:43:10;;;;;;;25.42;22.85;;;18.70;99.90;;;;;;5061443;28;20056;-70
2022/05/23 17:45:36;;;;;;;23.38;21.38;;;18.70;99.90;;;;;;5061546;28;20052;-70
2022/05/23 17:48:06;;;;;;;20.20;18.50;;;18.70;99.90;;;;;;5060466;28;20040;-70
2022/05/23 17:50:37;;;;;;;24.00;21.75;;;18.60;99.90;;;;;;5062118;28;20138;-70
2022/05/23 17:53:03;;;;;;;23.52;21.30;;;18.50;99.90;;;;;;5061894;28;20079;-70
2022/05/23 17:55:29;;;;;;;25.15;22.92;;;18.50;99.90;;;;;;5061313;28;20087;-70
2022/05/23 17:57:55;;;;;;;23.92;21.65;;;18.40;99.90;;;;;;5063464;28;20502;-70
2022/05/23 18:00:26;;;;;;;23.98;21.83;;;18.40;99.90;;;;;;5065673;28;20036;-70
2022/05/23 18:02:53;;;;;;;24.38;22.10;;;18.30;99.90;;;;;;5062842;28;20406;-70
2022/05/23 18:05:20;;;;;;;25.50;23.15;;;18.20;99.90;;;;;;5092357;28;20070;-70
2022/05/23 18:07:45;;;;;;;25.05;22.70;;;18.30;99.90;;;;;;5092064;28;20071;-70
2022/05/23 18:10:12;;;;;;;24.13;21.92;;;18.20;99.90;;;;;;5061815;28;20491;-70
2022/05/23 18:12:37;;;;;;;24.70;22.40;;;18.20;99.90;;;;;;5056698;28;20028;-70
2022/05/23 18:20:34;;;;;;;24.63;22.15;;;18.10;99.90;;;;;;5090362;28;20076;-70
2022/05/23 18:23:00;;;;;;;24.70;22.45;;;18.10;99.90;;;;;;5062932;28;20041;-70
2022/05/23 18:25:26;;;;;;;27.10;24.40;;;18.10;99.90;;;;;;5061597;28;20037;-70
2022/05/23 18:27:52;;;;;;;26.25;23.73;;;18.10;99.90;;;;;;5062485;28;20143;-70
2022/05/23 18:30:17;;;;;;;25.70;23.42;;;18.00;99.90;;;;;;5063517;28;20060;-70
2022/05/23 18:32:43;;;;;;;28.10;25.38;;;18.00;99.90;;;;;;5063561;28;20499;-70
2022/05/23 18:35:09;;;;;;;26.10;23.80;;;18.00;99.90;;;;;;5060578;28;20037;-70
2022/05/23 18:37:34;;;;;;;27.17;24.88;;;17.90;99.90;;;;;;5061277;28;20124;-70
2022/05/23 18:40:00;;;;;;;24.48;22.48;;;17.90;99.90;;;;;;5064657;28;20072;-70
2022/05/23 18:42:26;;;;;;;24.83;22.65;;;17.80;99.90;;;;;;5060055;28;20505;-70
2022/05/23 18:44:52;;;;;;;25.05;22.83;;;17.80;99.90;;;;;;5063334;28;20037;-70
2022/05/23 18:47:17;;;;;;;27.98;25.00;;;17.80;99.90;;;;;;5063280;28;20059;-70
2022/05/23 18:49:46;;;;;;;24.85;22.45;;;17.80;99.90;;;;;;5058227;28;20079;-70
2022/05/23 18:52:20;;;;;;;25.15;22.63;;;17.70;99.90;;;;;;5062816;28;20033;-70
2022/05/23 18:54:46;;;;;;;23.90;21.60;;;17.60;99.90;;;;;;5062899;28;20048;-70
2022/05/23 18:57:16;;;;;;;26.42;23.98;;;17.60;99.90;;;;;;5062245;28;20040;-70
2022/05/23 18:59:46;;;;;;;25.13;22.77;;;17.60;99.90;;;;;;5062493;28;20445;-70
2022/05/23 19:02:13;;;;;;;37.65;32.00;;;17.60;99.90;;;;;;5060899;28;20038;-70
2022/05/23 19:04:39;;;;;;;30.75;27.38;;;17.50;99.90;;;;;;5059424;28;20032;-70
2022/05/23 19:07:10;;;;;;;32.45;29.17;;;17.50;99.90;;;;;;5061504;28;20068;-70
2022/05/23 19:09:38;;;;;;;30.30;27.17;;;17.40;99.90;;;;;;5095012;28;20044;-70
2022/05/23 19:12:09;;;;;;;27.65;25.00;;;17.30;99.90;;;;;;5059500;28;20040;-70
2022/05/23 19:14:36;;;;;;;31.48;28.17;;;17.30;99.90;;;;;;5059237;28;20050;-70
2022/05/23 19:17:03;;;;;;;23.60;21.20;;;17.30;99.90;;;;;;5061680;28;20042;-70
2022/05/23 19:19:29;;;;;;;23.00;20.80;;;17.20;99.90;;;;;;5044340;28;20039;-70
2022/05/23 19:21:55;;;;;;;24.33;22.13;;;17.20;99.90;;;;;;5063060;28;20028;-70
2022/05/23 19:24:21;;;;;;;21.98;19.77;;;17.10;99.90;;;;;;5061022;28;20037;-70
2022/05/23 19:26:47;;;;;;;20.48;18.67;;;17.00;99.90;;;;;;5063524;28;20495;-70
2022/05/23 19:29:13;;;;;;;19.55;17.80;;;17.00;99.90;;;;;;5061370;28;20041;-70
2022/05/23 19:31:39;;;;;;;16.45;15.15;;;16.90;99.90;;;;;;5060035;28;20044;-70
2022/05/23 19:34:05;;;;;;;13.63;12.52;;;16.90;99.90;;;;;;5058782;28;20124;-70
2022/05/23 19:36:31;;;;;;;12.10;11.20;;;16.70;99.90;;;;;;5091251;28;20465;-70
2022/05/23 19:38:58;;;;;;;13.45;12.45;;;16.60;99.90;;;;;;5060352;28;20372;-70
2022/05/23 19:41:24;;;;;;;13.23;12.13;;;16.60;99.90;;;;;;5059563;28;20041;-70
2022/05/23 19:43:50;;;;;;;12.60;11.60;;;16.50;99.90;;;;;;5094363;28;20036;-70
2022/05/23 19:46:16;;;;;;;12.15;11.15;;;16.40;99.90;;;;;;5062923;28;20033;-70
2022/05/23 19:48:42;;;;;;;11.23;10.40;;;16.40;99.90;;;;;;5058815;28;20568;-70
2022/05/23 19:51:08;;;;;;;11.32;10.52;;;16.30;99.90;;;;;;5061006;28;20532;-70
2022/05/23 19:53:37;;;;;;;12.20;10.38;;;16.20;99.90;;;;;;5061798;28;20040;-70
2022/05/23 19:56:04;;;;;;;11.27;10.30;;;16.10;99.90;;;;;;5061115;28;20486;-70
2022/05/23 20:07:27;;;;;;;7.35;6.80;;;15.90;99.90;;;;;;5060865;28;20128;-70
2022/05/23 20:09:53;;;;;;;7.30;6.72;;;15.80;99.90;;;;;;5058581;28;20045;-70
2022/05/23 20:12:19;;;;;;;7.90;7.40;;;15.80;99.90;;;;;;5059535;28;20553;-70
2022/05/23 20:17:29;;;;;;;8.88;8.18;;;15.80;99.90;;;;;;5059940;28;20041;-70
2022/05/23 20:19:55;;;;;;;10.15;9.13;;;15.70;99.90;;;;;;5056319;28;20048;-70
2022/05/23 20:22:20;;;;;;;11.05;10.05;;;15.70;99.90;;;;;;5058608;28;21415;-69
2022/05/23 20:24:46;;;;;;;13.30;12.18;;;15.60;99.90;;;;;;5057861;28;20051;-70
2022/05/23 20:27:12;;;;;;;11.73;10.73;;;15.60;99.90;;;;;;5059492;28;20044;-70
2022/05/23 20:29:38;;;;;;;12.43;11.52;;;15.60;99.90;;;;;;5056404;28;20379;-70
2022/05/23 20:32:04;;;;;;;12.50;11.60;;;15.50;99.90;;;;;;5060779;28;20106;-70
2022/05/23 20:34:30;;;;;;;15.02;13.10;;;15.50;99.90;;;;;;5061416;28;20043;-70
2022/05/23 20:36:55;;;;;;;15.32;14.07;;;15.50;99.90;;;;;;5089965;28;20053;-70
2022/05/23 20:39:24;;;;;;;14.68;13.48;;;15.50;99.90;;;;;;5059139;28;20037;-70
2022/05/23 20:41:50;;;;;;;15.73;14.43;;;15.50;99.90;;;;;;5058334;28;20040;-70
2022/05/23 20:44:15;;;;;;;16.40;14.80;;;15.40;99.90;;;;;;5056097;28;20048;-70
2022/05/23 20:46:41;;;;;;;14.52;13.43;;;15.40;99.90;;;;;;5064175;28;20072;-70
2022/05/23 20:49:07;;;;;;;15.07;13.85;;;15.40;99.90;;;;;;5066506;28;20032;-70
2022/05/23 20:51:35;;;;;;;15.45;14.02;;;15.40;99.90;;;;;;5064732;28;20084;-70
2022/05/23 20:54:03;;;;;;;16.58;14.82;;;15.40;99.90;;;;;;5094512;28;20041;-70
2022/05/23 20:56:30;;;;;;;17.98;16.05;;;15.30;99.90;;;;;;5065745;28;20445;-70
2022/05/23 20:58:55;;;;;;;16.63;15.07;;;15.30;99.90;;;;;;5062838;28;20068;-70
2022/05/23 21:01:22;;;;;;;17.08;15.68;;;15.20;99.90;;;;;;5065518;28;20698;-71
2022/05/23 21:03:47;;;;;;;18.65;16.63;;;15.20;99.90;;;;;;5065524;28;20047;-70
2022/05/23 21:06:13;;;;;;;15.77;14.25;;;15.20;99.90;;;;;;5068579;28;20032;-71
2022/05/23 21:08:39;;;;;;;16.48;14.85;;;15.20;99.90;;;;;;5069920;28;20041;-70
2022/05/23 21:11:07;;;;;;;16.55;14.88;;;15.20;99.90;;;;;;5060036;28;20048;-70
2022/05/23 21:13:32;;;;;;;16.88;15.27;;;15.20;99.90;;;;;;5061215;28;20623;-71
2022/05/23 21:15:58;;;;;;;16.20;14.60;;;15.10;99.90;;;;;;5066163;28;20040;-71
2022/05/23 21:18:23;;;;;;;16.27;14.77;;;15.20;99.90;;;;;;5048753;28;20097;-70
2022/05/23 21:20:50;;;;;;;16.63;15.13;;;15.20;99.90;;;;;;5066583;28;20095;-70
2022/05/23 21:23:16;;;;;;;17.02;15.25;;;15.10;99.90;;;;;;5052329;28;20040;-70
2022/05/23 21:25:41;;;;;;;18.17;16.45;;;15.10;99.90;;;;;;5061187;28;20033;-70
2022/05/23 21:28:11;;;;;;;18.55;16.80;;;15.10;99.90;;;;;;5063115;28;20070;-70
2022/05/23 21:30:39;;;;;;;19.73;17.70;;;15.10;99.90;;;;;;5064501;28;20092;-70
2022/05/23 21:33:08;;;;;;;20.27;18.25;;;15.10;99.90;;;;;;5063179;28;20054;-70
2022/05/23 21:35:34;;;;;;;19.73;17.38;;;15.10;99.90;;;;;;5064485;28;20450;-71
2022/05/23 21:38:00;;;;;;;18.48;16.58;;;15.10;99.90;;;;;;5065117;28;20048;-71
2022/05/23 21:48:41;;;;;;;21.08;18.45;;;15.00;99.90;;;;;;5061996;28;20052;-71
2022/05/23 21:51:07;;;;;;;22.15;19.67;;;15.00;99.90;;;;;;5059383;28;20033;-70
2022/05/23 21:53:33;;;;;;;21.25;19.10;;;15.00;99.90;;;;;;5061379;28;20094;-70
2022/05/23 21:56:02;;;;;;;20.80;18.88;;;15.00;99.90;;;;;;5061218;28;20094;-71
2022/05/23 21:58:27;;;;;;;26.60;21.13;;;15.00;99.90;;;;;;5060213;28;20045;-70
2022/05/23 22:03:41;;;;;;;17.00;15.15;;;15.00;99.90;;;;;;5061512;28;20460;-70
2022/05/23 22:06:12;;;;;;;16.65;14.85;;;15.00;99.90;;;;;;5062412;28;20032;-70
2022/05/23 22:08:38;;;;;;;15.88;14.18;;;14.90;99.90;;;;;;5061165;28;20454;-70
2022/05/23 22:11:04;;;;;;;13.52;12.13;;;15.00;99.90;;;;;;5061988;28;20064;-70
2022/05/23 22:13:31;;;;;;;20.20;12.80;;;15.00;99.90;;;;;;5063325;28;20040;-70
2022/05/23 22:15:57;;;;;;;12.85;10.38;;;14.90;99.90;;;;;;5063757;28;20086;-70
2022/05/23 22:18:23;;;;;;;11.35;10.15;;;14.90;99.90;;;;;;5061679;28;20050;-71
2022/05/23 22:20:49;;;;;;;12.48;11.00;;;14.90;99.90;;;;;;5060632;28;20036;-71
2022/05/23 22:23:15;;;;;;;11.05;9.00;;;14.90;99.90;;;;;;5057186;28;20033;-70
2022/05/23 22:25:40;;;;;;;12.88;8.13;;;14.90;99.90;;;;;;5060524;28;20495;-70
2022/05/23 22:28:06;;;;;;;12.25;7.20;;;14.90;99.90;;;;;;5061382;28;20119;-70
2022/05/23 22:30:32;;;;;;;9.55;6.88;;;14.90;99.90;;;;;;5060640;28;20036;-70
2022/05/23 22:32:58;;;;;;;11.18;6.10;;;14.90;99.90;;;;;;5093297;28;20123;-70
2022/05/23 22:35:25;;;;;;;6.20;5.47;;;14.90;99.90;;;;;;5057715;28;20459;-71
2022/05/23 22:37:55;;;;;;;11.02;6.40;;;14.80;99.90;;;;;;5063689;28;20048;-71
2022/05/23 22:40:21;;;;;;;10.00;6.47;;;14.80;99.90;;;;;;5045780;28;20097;-70
2022/05/23 22:42:47;;;;;;;6.95;5.00;;;14.80;99.90;;;;;;5061730;28;20044;-71
2022/05/23 22:45:14;;;;;;;8.13;3.60;;;14.80;99.90;;;;;;5062567;28;20032;-71
2022/05/23 22:47:40;;;;;;;7.65;2.97;;;14.80;99.90;;;;;;5064083;28;20442;-70
2022/05/23 22:50:07;;;;;;;4.32;2.97;;;14.80;99.90;;;;;;5062624;28;20036;-70
2022/05/23 22:52:33;;;;;;;8.85;2.70;;;14.70;99.90;;;;;;5061697;28;20128;-70
2022/05/23 22:54:59;;;;;;;5.00;2.33;;;14.70;99.90;;;;;;5060311;28;20123;-71
2022/05/23 22:57:26;;;;;;;6.80;2.17;;;14.70;99.90;;;;;;5062138;28;20036;-71
2022/05/23 22:59:51;;;;;;;3.85;2.40;;;14.70;99.90;;;;;;5060136;28;20443;-70
2022/05/23 23:02:17;;;;;;;4.40;1.88;;;14.60;99.90;;;;;;5060468;28;20052;-71
2022/05/23 23:04:43;;;;;;;6.00;2.05;;;14.70;99.90;;;;;;5043731;28;20128;-70
2022/05/23 23:07:10;;;;;;;6.35;1.95;;;14.70;99.90;;;;;;5056940;28;20493;-70
2022/05/23 23:09:36;;;;;;;6.32;3.00;;;14.70;99.90;;;;;;5060218;28;20067;-71
2022/05/23 23:12:02;;;;;;;4.00;2.13;;;14.70;99.90;;;;;;5059067;28;20068;-70
2022/05/23 23:14:28;;;;;;;13.32;3.10;;;14.60;99.90;;;;;;5060692;28;20083;-70
2022/05/23 23:17:00;;;;;;;5.18;2.72;;;14.70;99.90;;;;;;5061366;28;20910;-71
2022/05/23 23:19:26;;;;;;;8.82;3.47;;;14.70;99.90;;;;;;5060231;28;20037;-71
2022/05/23 23:21:51;;;;;;;6.95;3.47;;;14.60;99.90;;;;;;5056517;28;20067;-71
2022/05/23 23:24:17;;;;;;;13.20;4.53;;;14.60;99.90;;;;;;5062711;28;20036;-70
2022/05/23 23:26:43;;;;;;;8.40;3.90;;;14.50;99.90;;;;;;5060127;28;20097;-70
2022/05/23 23:29:09;;;;;;;8.40;3.83;;;14.50;99.90;;;;;;5048316;28;20127;-70
2022/05/23 23:31:35;;;;;;;8.85;4.20;;;14.40;99.90;;;;;;5059893;28;20452;-70
2022/05/23 23:39:29;;;;;;;6.78;4.03;;;14.40;99.90;;;;;;5058873;28;20041;-71
2022/05/23 23:41:54;;;;;;;6.50;3.92;;;14.40;99.90;;;;;;5061500;28;20032;-70
2022/05/23 23:44:20;;;;;;;7.55;4.60;;;14.40;99.90;;;;;;5058992;28;20032;-70
2022/05/23 23:46:45;;;;;;;10.93;4.82;;;14.30;99.90;;;;;;5059832;28;20479;-70
2022/05/23 23:49:11;;;;;;;10.98;4.25;;;14.30;99.90;;;;;;5062127;28;20040;-71
2022/05/23 23:51:36;;;;;;;5.80;4.30;;;14.30;99.90;;;;;;5057823;28;20037;-70
2022/05/23 23:54:02;;;;;;;8.02;4.25;;;14.30;99.90;;;;;;5060352;28;20048;-70
2022/05/23 23:56:28;;;;;;;6.53;3.90;;;14.30;99.90;;;;;;5057918;28;20037;-71
2022/05/23 23:58:53;;;;;;;7.70;3.65;;;14.30;99.90;;;;;;5058658;28;20041;-70
